Time;durP1;ratioP1;P1;durP2;ratioP2;P2;SDS_P1;SDS_P2;PMS_P1;PMS_P2;Temp;Humidity;BMP_temperature;BMP_pressure;BME280_temperature;BME280_humidity;BME280_pressure;Samples;Min_cycle;Max_cycle;Signal;HPM_P1;HPM_P2
2022/05/15 00:00:38;;;;;;;6.60;3.20;;;21.30;59.10;;;;;;5038024;28;20514;-63
2022/05/15 00:03:11;;;;;;;4.90;3.03;;;21.30;59.30;;;;;;5039030;28;20048;-61
2022/05/15 00:05:36;;;;;;;5.22;2.63;;;21.30;59.40;;;;;;5037080;28;20048;-61
2022/05/15 00:08:02;;;;;;;5.80;2.83;;;21.30;59.40;;;;;;5037645;28;20465;-61
2022/05/15 00:10:27;;;;;;;3.33;2.80;;;21.30;59.50;;;;;;5038497;28;20029;-61
2022/05/15 00:12:53;;;;;;;8.38;2.80;;;21.20;59.50;;;;;;5038066;28;20490;-61
2022/05/15 00:15:18;;;;;;;11.10;3.22;;;21.20;59.60;;;;;;5036905;28;20067;-60
2022/05/15 00:17:44;;;;;;;7.20;3.00;;;21.20;59.60;;;;;;5039027;28;20271;-60
2022/05/15 00:20:10;;;;;;;6.10;2.70;;;21.10;59.80;;;;;;5035351;28;20445;-63
2022/05/15 00:22:35;;;;;;;5.95;2.70;;;21.10;59.80;;;;;;5039449;28;20068;-61
2022/05/15 00:25:02;;;;;;;5.55;3.15;;;21.00;59.80;;;;;;5037763;28;20048;-62
2022/05/15 00:27:28;;;;;;;3.63;2.75;;;21.00;60.00;;;;;;5036859;28;20033;-62
2022/05/15 00:29:53;;;;;;;7.53;3.13;;;21.00;60.90;;;;;;5035731;28;20025;-61
2022/05/15 00:32:19;;;;;;;4.53;3.10;;;21.00;60.30;;;;;;5039847;28;20048;-63
2022/05/15 00:34:44;;;;;;;8.98;2.97;;;20.90;60.40;;;;;;5036564;28;20099;-61
2022/05/15 00:37:10;;;;;;;10.23;3.13;;;20.90;60.50;;;;;;5038834;28;20030;-62
2022/05/15 00:39:35;;;;;;;9.82;3.20;;;20.90;60.60;;;;;;5036980;28;20043;-62
2022/05/15 00:42:01;;;;;;;7.88;3.17;;;20.90;60.70;;;;;;5038415;28;20078;-62
2022/05/15 00:44:26;;;;;;;7.30;4.18;;;21.00;60.80;;;;;;5036538;28;20173;-62
2022/05/15 00:46:52;;;;;;;6.43;4.20;;;20.90;60.90;;;;;;5037763;28;20435;-63
2022/05/15 00:49:17;;;;;;;6.95;4.78;;;20.80;60.90;;;;;;5035737;28;20179;-62
2022/05/15 00:51:53;;;;;;;6.28;4.25;;;20.80;61.00;;;;;;5036810;28;20037;-60
2022/05/15 00:54:56;;;;;;;7.20;4.60;;;20.80;61.20;;;;;;5021058;28;20489;-63
2022/05/15 00:57:28;;;;;;;6.50;4.32;;;20.80;61.30;;;;;;5035967;28;20064;-61
2022/05/15 01:00:11;;;;;;;7.57;4.22;;;20.70;61.30;;;;;;5020568;28;20168;-61
2022/05/15 01:02:42;;;;;;;11.57;3.72;;;20.70;61.50;;;;;;5023262;28;20033;-62
2022/05/15 01:05:11;;;;;;;9.18;4.05;;;20.60;61.60;;;;;;5041941;28;20086;-63
2022/05/15 01:07:37;;;;;;;7.65;4.03;;;20.60;61.80;;;;;;5040439;28;20716;-62
2022/05/15 01:10:03;;;;;;;6.65;4.25;;;20.60;61.90;;;;;;5041568;28;20489;-61
2022/05/15 01:12:29;;;;;;;8.43;4.00;;;20.60;62.00;;;;;;5037770;28;20508;-64
2022/05/15 01:14:54;;;;;;;8.15;3.95;;;20.50;62.00;;;;;;5036917;28;20084;-63
2022/05/15 01:17:20;;;;;;;9.50;3.67;;;20.50;62.20;;;;;;5035859;28;20028;-63
2022/05/15 01:19:45;;;;;;;4.57;3.22;;;20.50;62.30;;;;;;5039833;28;20029;-62
2022/05/15 01:22:15;;;;;;;6.38;3.40;;;20.50;62.40;;;;;;5041827;28;20421;-63
2022/05/15 01:24:41;;;;;;;8.38;3.15;;;20.40;62.40;;;;;;5038614;28;20032;-62
2022/05/15 01:27:09;;;;;;;7.38;3.45;;;20.40;62.60;;;;;;5022715;28;20365;-60
2022/05/15 01:29:38;;;;;;;7.28;3.30;;;20.40;63.40;;;;;;5037529;28;20099;-60
2022/05/15 01:32:04;;;;;;;7.47;3.00;;;20.30;62.80;;;;;;5035219;28;20021;-63
2022/05/15 01:34:29;;;;;;;5.93;2.90;;;20.30;63.00;;;;;;5021205;28;21710;-63
2022/05/15 01:36:55;;;;;;;3.97;3.05;;;20.30;63.20;;;;;;5022310;28;20037;-61
2022/05/15 01:39:21;;;;;;;4.97;2.90;;;20.30;63.20;;;;;;5037019;28;20037;-61
2022/05/15 01:41:46;;;;;;;7.10;3.35;;;20.20;64.00;;;;;;5039104;28;20052;-60
2022/05/15 01:44:12;;;;;;;4.85;2.70;;;20.20;63.30;;;;;;5037219;28;20029;-62
2022/05/15 01:46:37;;;;;;;8.50;3.13;;;20.20;63.50;;;;;;5037061;28;20029;-60
2022/05/15 01:49:06;;;;;;;5.88;3.30;;;20.20;63.70;;;;;;5039959;28;20049;-63
2022/05/15 01:51:32;;;;;;;5.25;3.28;;;20.10;63.70;;;;;;5021496;28;20516;-62
2022/05/15 01:53:57;;;;;;;10.50;2.78;;;20.10;64.00;;;;;;5034946;28;20094;-62
2022/05/15 01:56:23;;;;;;;4.05;2.30;;;20.10;64.30;;;;;;5024649;28;20120;-61
2022/05/15 01:58:48;;;;;;;6.18;3.08;;;20.00;64.50;;;;;;5022818;28;20033;-62
2022/05/15 02:01:14;;;;;;;8.32;2.97;;;20.00;64.60;;;;;;5023557;28;20074;-62
2022/05/15 02:03:39;;;;;;;6.07;2.38;;;19.90;64.90;;;;;;5038863;28;20024;-62
2022/05/15 02:06:05;;;;;;;10.80;2.97;;;19.90;65.10;;;;;;5039620;28;20037;-63
2022/05/15 02:08:31;;;;;;;5.57;2.70;;;19.90;65.30;;;;;;5036567;28;20048;-64
2022/05/15 02:10:57;;;;;;;6.15;2.72;;;19.90;65.80;;;;;;5022161;28;20029;-61
2022/05/15 02:13:23;;;;;;;11.45;2.97;;;19.90;65.90;;;;;;5037349;28;20112;-62
2022/05/15 02:15:48;;;;;;;6.40;3.00;;;19.80;66.20;;;;;;5038715;28;20174;-61
2022/05/15 02:18:14;;;;;;;9.98;3.40;;;19.80;66.30;;;;;;5037015;28;20400;-63
2022/05/15 02:20:39;;;;;;;4.40;2.78;;;19.80;66.50;;;;;;5037884;28;20044;-63
2022/05/15 02:23:05;;;;;;;4.82;2.70;;;19.70;66.60;;;;;;5039081;28;20084;-63
2022/05/15 02:25:31;;;;;;;6.00;2.60;;;19.70;66.70;;;;;;5040127;28;20021;-62
2022/05/15 02:27:57;;;;;;;7.72;2.63;;;19.70;66.80;;;;;;5034317;28;20029;-60
2022/05/15 02:30:23;;;;;;;8.40;2.72;;;19.70;67.00;;;;;;5035678;28;20083;-63
2022/05/15 02:32:49;;;;;;;3.92;2.70;;;19.70;67.20;;;;;;5038249;28;20041;-62
2022/05/15 02:35:15;;;;;;;4.65;2.72;;;19.60;67.40;;;;;;5039076;28;20044;-60
2022/05/15 02:37:44;;;;;;;4.53;2.40;;;19.70;67.60;;;;;;5040875;28;20025;-61
2022/05/15 02:40:11;;;;;;;7.95;3.08;;;19.60;67.70;;;;;;5038195;28;20025;-62
2022/05/15 02:42:36;;;;;;;6.40;3.00;;;19.60;67.90;;;;;;5020720;28;20029;-61
2022/05/15 02:45:02;;;;;;;11.93;3.03;;;19.60;68.10;;;;;;5037391;28;20045;-62
2022/05/15 02:47:27;;;;;;;6.28;2.80;;;19.50;68.20;;;;;;5037336;28;20107;-62
2022/05/15 02:52:55;;;;;;;5.68;3.10;;;19.50;68.60;;;;;;5038587;28;20230;-63
2022/05/15 02:55:22;;;;;;;4.28;2.90;;;19.40;68.90;;;;;;5039160;28;20029;-62
2022/05/15 02:57:47;;;;;;;4.50;2.50;;;19.40;69.20;;;;;;5037109;28;20047;-62
2022/05/15 03:00:13;;;;;;;7.30;2.67;;;19.40;69.20;;;;;;5034958;28;20013;-63
2022/05/15 03:02:39;;;;;;;7.28;2.60;;;19.40;69.10;;;;;;5023422;28;20021;-61
2022/05/15 03:05:06;;;;;;;4.15;2.60;;;19.40;69.10;;;;;;5036510;28;20455;-63
2022/05/15 03:07:31;;;;;;;5.30;2.88;;;19.30;69.20;;;;;;5037322;28;20047;-62
2022/05/15 03:09:57;;;;;;;4.75;2.83;;;19.30;69.30;;;;;;5038343;28;20232;-61
2022/05/15 03:12:22;;;;;;;7.30;3.17;;;19.30;69.30;;;;;;5018454;28;20041;-61
2022/05/15 03:14:48;;;;;;;5.82;2.85;;;19.30;69.40;;;;;;5022380;28;20064;-63
2022/05/15 03:17:16;;;;;;;5.38;3.25;;;19.30;69.50;;;;;;5036207;28;20052;-61
2022/05/15 03:19:43;;;;;;;7.40;3.67;;;19.30;69.60;;;;;;5036882;28;20115;-62
2022/05/15 03:22:08;;;;;;;5.28;3.45;;;19.20;69.70;;;;;;5022506;28;20557;-61
2022/05/15 03:24:34;;;;;;;4.47;3.10;;;19.20;69.90;;;;;;5035392;28;20119;-63
2022/05/15 03:27:00;;;;;;;5.18;3.05;;;19.10;69.90;;;;;;5037064;28;20043;-62
2022/05/15 03:29:26;;;;;;;8.05;3.25;;;19.20;70.00;;;;;;5037356;28;20044;-62
2022/05/15 03:31:51;;;;;;;6.22;3.17;;;19.10;70.10;;;;;;5037098;28;20111;-62
2022/05/15 03:34:17;;;;;;;5.90;3.10;;;19.10;70.10;;;;;;5036257;28;20179;-63
2022/05/15 03:36:43;;;;;;;4.63;3.22;;;19.10;70.30;;;;;;5038661;28;20064;-63
2022/05/15 03:39:09;;;;;;;4.47;3.30;;;19.10;70.40;;;;;;5019853;28;20033;-61
2022/05/15 03:41:35;;;;;;;5.85;3.55;;;19.10;70.60;;;;;;5034820;28;20176;-62
2022/05/15 03:44:01;;;;;;;5.07;2.88;;;19.00;70.70;;;;;;5035722;28;20579;-63
2022/05/15 03:46:26;;;;;;;4.43;3.42;;;19.00;71.00;;;;;;5039033;28;20025;-61
2022/05/15 03:48:52;;;;;;;4.93;2.95;;;19.00;71.20;;;;;;5037217;28;20173;-63
2022/05/15 03:51:17;;;;;;;6.25;3.13;;;18.90;71.20;;;;;;5034550;28;20084;-62
2022/05/15 03:53:43;;;;;;;7.22;2.95;;;18.90;71.30;;;;;;5037517;28;20037;-62
2022/05/15 03:56:08;;;;;;;4.35;2.67;;;18.90;71.50;;;;;;5034432;28;20108;-63
2022/05/15 03:58:35;;;;;;;3.97;2.78;;;18.90;71.70;;;;;;5035627;28;20392;-62
2022/05/15 04:01:01;;;;;;;9.95;3.13;;;18.90;71.70;;;;;;5034617;28;20504;-61
2022/05/15 04:03:27;;;;;;;3.70;2.90;;;18.90;71.80;;;;;;5035861;28;20083;-62
2022/05/15 04:05:52;;;;;;;3.63;2.92;;;18.80;72.00;;;;;;5039329;28;20064;-62
2022/05/15 04:08:18;;;;;;;6.25;2.95;;;18.80;72.10;;;;;;5039028;28;20202;-62
2022/05/15 04:10:43;;;;;;;6.57;3.00;;;18.80;72.30;;;;;;5038576;28;20123;-62
2022/05/15 04:13:09;;;;;;;7.30;3.08;;;18.80;72.50;;;;;;5034524;28;20100;-61
2022/05/15 04:15:34;;;;;;;3.78;2.70;;;18.80;72.60;;;;;;5034700;28;20612;-63
2022/05/15 04:18:00;;;;;;;4.70;2.88;;;18.80;72.60;;;;;;5033762;28;20072;-61
2022/05/15 04:20:26;;;;;;;3.55;2.78;;;18.70;72.60;;;;;;5019713;28;20111;-62
2022/05/15 04:22:52;;;;;;;5.65;2.90;;;18.70;72.60;;;;;;5038780;28;20048;-63
2022/05/15 04:25:18;;;;;;;4.53;2.70;;;18.70;72.60;;;;;;5021093;28;20017;-62
2022/05/15 04:27:43;;;;;;;7.30;3.15;;;18.70;72.70;;;;;;5036105;28;20025;-62
2022/05/15 04:30:11;;;;;;;5.03;2.50;;;18.70;72.80;;;;;;5032471;28;20579;-61
2022/05/15 04:32:36;;;;;;;6.30;3.03;;;18.70;72.80;;;;;;5033512;28;20059;-61
2022/05/15 04:35:02;;;;;;;5.55;2.90;;;18.70;72.80;;;;;;5038673;28;20457;-61
2022/05/15 04:37:27;;;;;;;3.95;2.55;;;18.70;72.90;;;;;;5040662;28;20029;-62
2022/05/15 04:39:53;;;;;;;4.68;2.70;;;18.60;72.90;;;;;;5042164;28;20103;-62
2022/05/15 04:42:18;;;;;;;3.97;2.78;;;18.60;73.00;;;;;;5038572;28;20411;-62
2022/05/15 04:44:45;;;;;;;7.80;3.13;;;18.60;73.10;;;;;;5039761;28;20493;-61
2022/05/15 04:47:11;;;;;;;3.88;2.67;;;18.60;73.20;;;;;;5036518;28;20358;-64
2022/05/15 04:49:37;;;;;;;5.97;2.67;;;18.50;73.20;;;;;;5041108;28;20511;-62
2022/05/15 04:52:02;;;;;;;6.13;2.80;;;18.50;73.20;;;;;;5043296;28;20517;-62
2022/05/15 04:54:28;;;;;;;10.85;2.95;;;18.50;73.20;;;;;;5040078;28;20028;-62
2022/05/15 04:56:53;;;;;;;6.38;2.80;;;18.50;73.30;;;;;;5039234;28;21066;-62
2022/05/15 04:59:19;;;;;;;4.32;2.60;;;18.50;73.30;;;;;;5042252;28;20033;-63
2022/05/15 05:01:44;;;;;;;2.50;2.30;;;18.50;73.30;;;;;;5039283;28;20029;-62
2022/05/15 05:04:10;;;;;;;5.30;2.75;;;18.50;73.30;;;;;;5043613;28;20706;-61
2022/05/15 05:06:36;;;;;;;4.15;2.58;;;18.40;73.20;;;;;;5041310;28;20466;-61
2022/05/15 05:09:01;;;;;;;5.32;2.85;;;18.50;73.30;;;;;;5035984;28;20544;-64
2022/05/15 05:11:27;;;;;;;4.25;2.63;;;18.50;73.40;;;;;;5039218;28;20098;-61
2022/05/15 05:13:52;;;;;;;4.10;2.63;;;18.40;73.40;;;;;;5040624;28;20041;-63
2022/05/15 05:16:18;;;;;;;3.53;2.70;;;18.40;73.40;;;;;;5023113;28;20060;-62
2022/05/15 05:18:44;;;;;;;3.90;2.67;;;18.40;73.30;;;;;;5039581;28;20048;-61
2022/05/15 05:21:09;;;;;;;5.97;2.90;;;18.40;73.30;;;;;;5024140;28;20058;-62
2022/05/15 05:23:35;;;;;;;6.13;2.75;;;18.40;73.20;;;;;;5035950;28;20444;-61
2022/05/15 05:26:00;;;;;;;5.03;2.58;;;18.40;73.20;;;;;;5039878;28;20550;-62
2022/05/15 05:28:27;;;;;;;3.92;2.47;;;18.40;73.20;;;;;;5037090;28;20453;-61
2022/05/15 05:30:53;;;;;;;3.88;2.47;;;18.40;73.10;;;;;;5023700;28;20063;-63
2022/05/15 05:33:18;;;;;;;3.85;2.65;;;18.40;73.00;;;;;;5037011;28;20085;-62
2022/05/15 05:35:44;;;;;;;3.40;2.50;;;18.40;72.90;;;;;;5040906;28;20040;-61
2022/05/15 05:38:10;;;;;;;4.28;2.58;;;18.40;72.90;;;;;;5040268;28;20183;-62
2022/05/15 05:40:35;;;;;;;5.13;2.22;;;18.40;72.70;;;;;;5040045;28;20567;-61
2022/05/15 05:43:01;;;;;;;5.82;2.50;;;18.40;72.70;;;;;;5038709;28;20055;-61
2022/05/15 05:45:26;;;;;;;5.10;2.42;;;18.40;72.70;;;;;;5039049;28;20104;-62
2022/05/15 05:47:52;;;;;;;4.15;3.15;;;18.40;72.70;;;;;;5037782;28;20095;-63
2022/05/15 05:50:23;;;;;;;2.97;2.42;;;18.40;72.70;;;;;;5039188;28;20615;-62
2022/05/15 05:52:49;;;;;;;5.22;2.40;;;18.40;72.70;;;;;;5041240;28;20037;-61
2022/05/15 05:55:15;;;;;;;4.28;2.42;;;18.40;72.70;;;;;;5022269;28;20327;-62
2022/05/15 05:57:41;;;;;;;3.47;2.47;;;18.40;72.70;;;;;;5021072;28;20037;-63
2022/05/15 06:00:15;;;;;;;5.10;2.78;;;18.40;72.60;;;;;;5034991;28;20970;-62
2022/05/15 06:02:41;;;;;;;3.72;2.45;;;18.40;72.50;;;;;;5039621;28;20104;-63
2022/05/15 06:05:07;;;;;;;6.55;2.60;;;18.30;72.40;;;;;;5038175;28;20481;-62
2022/05/15 06:07:37;;;;;;;3.38;2.50;;;18.40;72.50;;;;;;5020197;28;20045;-63
2022/05/15 06:10:03;;;;;;;5.05;3.20;;;18.40;72.40;;;;;;5022506;28;20088;-63
2022/05/15 06:12:29;;;;;;;8.32;2.63;;;18.40;72.40;;;;;;5040712;28;20136;-61
2022/05/15 06:14:54;;;;;;;4.07;2.25;;;18.40;72.40;;;;;;5039511;28;20033;-62
2022/05/15 06:17:21;;;;;;;7.30;2.60;;;18.40;72.40;;;;;;5019631;28;20844;-63
2022/05/15 06:19:46;;;;;;;5.32;2.60;;;18.40;72.30;;;;;;5038301;28;20025;-61
2022/05/15 06:22:12;;;;;;;5.80;3.08;;;18.40;72.30;;;;;;5041210;28;20044;-62
2022/05/15 06:24:37;;;;;;;6.57;2.75;;;18.40;72.30;;;;;;5037555;28;20057;-61
2022/05/15 06:27:03;;;;;;;5.28;2.42;;;18.40;72.50;;;;;;5039797;28;20037;-61
2022/05/15 06:29:29;;;;;;;4.40;2.72;;;18.40;72.40;;;;;;5038767;28;20029;-63
2022/05/15 06:31:55;;;;;;;6.65;2.85;;;18.40;72.60;;;;;;5037980;28;20033;-62
2022/05/15 06:34:20;;;;;;;5.30;2.72;;;18.40;72.70;;;;;;5035709;28;20084;-61
2022/05/15 06:36:46;;;;;;;5.93;2.60;;;18.40;72.80;;;;;;5036940;28;20580;-61
2022/05/15 06:39:12;;;;;;;3.58;2.55;;;18.40;72.70;;;;;;5038413;28;20037;-62
2022/05/15 06:41:37;;;;;;;3.67;2.60;;;18.40;72.70;;;;;;5035565;28;20077;-61
2022/05/15 06:44:04;;;;;;;6.68;2.97;;;18.40;72.80;;;;;;5023111;28;20021;-62
2022/05/15 06:46:29;;;;;;;4.93;2.72;;;18.40;72.90;;;;;;5022268;28;20076;-62
2022/05/15 06:48:55;;;;;;;5.25;3.08;;;18.40;73.00;;;;;;5037842;28;20532;-62
2022/05/15 06:51:20;;;;;;;5.75;2.92;;;18.40;73.00;;;;;;5041356;28;20432;-61
2022/05/15 06:53:46;;;;;;;4.95;2.67;;;18.40;73.10;;;;;;5036912;28;20669;-62
2022/05/15 06:58:56;;;;;;;6.43;3.03;;;18.40;73.20;;;;;;5038473;28;20040;-61
2022/05/15 07:01:21;;;;;;;11.45;3.15;;;18.40;73.20;;;;;;5036453;28;20032;-63
2022/05/15 07:03:47;;;;;;;5.68;2.83;;;18.40;73.30;;;;;;5021442;28;20116;-61
2022/05/15 07:06:13;;;;;;;4.78;3.13;;;18.40;73.30;;;;;;5034362;28;20410;-61
2022/05/15 07:08:39;;;;;;;4.20;3.10;;;18.50;74.10;;;;;;5036057;28;20409;-63
2022/05/15 07:11:04;;;;;;;5.97;3.00;;;18.50;73.60;;;;;;5038691;28;20043;-60
2022/05/15 07:13:32;;;;;;;5.45;3.55;;;18.40;73.60;;;;;;5022406;28;20018;-61
2022/05/15 07:15:58;;;;;;;7.00;3.67;;;18.50;73.70;;;;;;5036566;28;20068;-62
2022/05/15 07:18:23;;;;;;;4.70;3.42;;;18.50;73.80;;;;;;5020992;28;20036;-63
2022/05/15 07:20:50;;;;;;;6.13;3.60;;;18.50;73.90;;;;;;5030326;28;20072;-62
2022/05/15 07:23:16;;;;;;;6.63;3.70;;;18.50;74.00;;;;;;5020753;28;20043;-62
2022/05/15 07:25:42;;;;;;;6.13;3.80;;;18.50;74.10;;;;;;5037241;28;20074;-62
2022/05/15 07:28:07;;;;;;;8.50;3.60;;;18.50;74.10;;;;;;5036948;28;20162;-61
2022/05/15 07:30:33;;;;;;;5.53;3.85;;;18.50;74.20;;;;;;5035109;28;20037;-63
2022/05/15 07:32:59;;;;;;;7.05;3.60;;;18.50;74.20;;;;;;5037935;28;20098;-61
2022/05/15 07:35:24;;;;;;;6.57;3.53;;;18.50;74.20;;;;;;5004167;28;20041;-62
2022/05/15 07:37:50;;;;;;;6.13;3.67;;;18.60;74.30;;;;;;5037541;28;20366;-61
2022/05/15 07:40:15;;;;;;;7.80;4.00;;;18.60;74.30;;;;;;5039528;28;20352;-63
2022/05/15 07:42:41;;;;;;;6.88;3.50;;;18.60;74.30;;;;;;5036913;28;20777;-61
2022/05/15 07:45:08;;;;;;;10.35;3.92;;;18.70;74.30;;;;;;5032182;28;20033;-63
2022/05/15 07:47:33;;;;;;;5.03;3.95;;;18.60;74.20;;;;;;5030826;28;20033;-60
2022/05/15 07:49:59;;;;;;;5.35;3.40;;;18.60;74.30;;;;;;5034599;28;20128;-62
2022/05/15 07:52:25;;;;;;;7.68;4.07;;;18.70;74.20;;;;;;5016624;28;20045;-63
2022/05/15 07:54:51;;;;;;;5.78;4.05;;;18.60;74.20;;;;;;5005230;28;20075;-62
2022/05/15 07:57:17;;;;;;;5.72;3.70;;;18.60;74.30;;;;;;5004981;28;20025;-62
2022/05/15 07:59:43;;;;;;;5.65;3.83;;;18.60;74.10;;;;;;5002723;28;20034;-63
2022/05/15 08:02:08;;;;;;;5.00;3.50;;;18.70;74.30;;;;;;5035381;28;20112;-62
2022/05/15 08:08:00;;;;;;;6.32;3.80;;;18.70;74.40;;;;;;5037352;28;20477;-62
2022/05/15 08:10:05;;;;;;;10.98;4.43;;;18.70;74.70;;;;;;5031589;28;19931;-62
2022/05/15 08:12:30;;;;;;;11.77;4.85;;;18.70;75.30;;;;;;5033760;28;20037;-61
2022/05/15 08:14:56;;;;;;;7.40;4.60;;;18.70;75.50;;;;;;5040585;28;20069;-62
2022/05/15 08:17:21;;;;;;;12.15;5.03;;;18.80;76.40;;;;;;5034774;28;22125;-62
2022/05/15 08:25:19;;;;;;;21.77;4.65;;;18.80;77.50;;;;;;5038245;28;20040;-61
2022/05/15 08:27:44;;;;;;;13.38;5.40;;;18.90;77.30;;;;;;5035120;28;20098;-63
2022/05/15 08:30:11;;;;;;;13.45;5.75;;;18.90;77.40;;;;;;5036707;28;20029;-62
2022/05/15 08:32:36;;;;;;;11.15;4.65;;;18.90;77.30;;;;;;5039723;28;20450;-62
2022/05/15 08:35:02;;;;;;;13.52;4.93;;;18.90;77.70;;;;;;5042409;28;20040;-60
2022/05/15 08:37:27;;;;;;;21.95;6.18;;;19.00;77.90;;;;;;5037412;28;20049;-62
2022/05/15 08:39:53;;;;;;;19.38;6.50;;;19.10;78.60;;;;;;5019230;28;20094;-63
2022/05/15 08:42:50;;;;;;;32.63;6.38;;;19.10;78.50;;;;;;5038329;28;20350;-61
2022/05/15 08:45:16;;;;;;;39.03;7.57;;;19.20;78.60;;;;;;5040663;28;20029;-60
2022/05/15 08:47:46;;;;;;;46.22;8.85;;;19.20;78.80;;;;;;5038953;28;20048;-62
2022/05/15 08:50:17;;;;;;;33.20;7.75;;;19.30;79.00;;;;;;5034747;28;20219;-62
2022/05/15 08:52:58;;;;;;;41.40;8.48;;;19.30;79.00;;;;;;5039299;28;20055;-62
2022/05/15 08:55:28;;;;;;;48.28;8.05;;;19.40;79.20;;;;;;5039201;28;20024;-63
2022/05/15 08:58:01;;;;;;;30.77;8.05;;;19.40;79.30;;;;;;5022817;28;20029;-62
2022/05/15 09:00:47;;;;;;;28.77;7.85;;;19.40;79.60;;;;;;5036597;28;20058;-62
2022/05/15 09:03:13;;;;;;;41.33;8.30;;;19.50;79.30;;;;;;5021592;28;20541;-62
2022/05/15 09:05:46;;;;;;;46.25;8.65;;;19.50;79.50;;;;;;5032436;28;20120;-61
2022/05/15 09:08:38;;;;;;;51.05;8.90;;;19.50;79.70;;;;;;5034946;28;20183;-62
2022/05/15 09:11:06;;;;;;;54.50;9.15;;;19.50;79.70;;;;;;5020941;28;20024;-62
2022/05/15 09:13:31;;;;;;;44.95;9.15;;;19.60;79.80;;;;;;5016008;28;20054;-62
2022/05/15 09:15:58;;;;;;;51.03;9.40;;;19.60;79.80;;;;;;5034401;28;20029;-62
2022/05/15 09:18:24;;;;;;;40.13;8.63;;;19.80;79.90;;;;;;5010681;28;20935;-63
2022/05/15 09:20:52;;;;;;;70.13;10.80;;;19.70;79.60;;;;;;5032200;28;20112;-62
2022/05/15 09:23:34;;;;;;;64.25;9.95;;;19.70;79.90;;;;;;5033529;28;20731;-61
2022/05/15 09:26:27;;;;;;;61.60;9.93;;;19.80;80.40;;;;;;5033034;28;20028;-62
2022/05/15 09:28:57;;;;;;;50.10;10.95;;;19.90;80.10;;;;;;5022483;28;20029;-61
2022/05/15 09:31:26;;;;;;;61.58;10.10;;;19.90;79.80;;;;;;5033478;28;20068;-61
2022/05/15 09:33:55;;;;;;;82.15;11.60;;;20.00;80.00;;;;;;5034763;28;20045;-62
2022/05/15 09:36:33;;;;;;;72.78;10.88;;;20.00;79.80;;;;;;5018322;28;20021;-62
2022/05/15 09:39:20;;;;;;;72.95;11.82;;;20.00;79.80;;;;;;5032977;28;20029;-61
2022/05/15 09:44:47;;;;;;;91.57;12.95;;;20.10;79.80;;;;;;5032162;28;20106;-61
2022/05/15 09:47:28;;;;;;;49.22;10.68;;;20.20;80.10;;;;;;5029543;28;20016;-62
2022/05/15 09:49:54;;;;;;;85.30;13.13;;;20.20;79.60;;;;;;5033266;28;20488;-61
2022/05/15 09:52:24;;;;;;;96.72;13.60;;;20.10;79.50;;;;;;5017713;28;20041;-61
2022/05/15 09:54:50;;;;;;;96.18;14.18;;;20.30;79.60;;;;;;5020558;28;20037;-62
2022/05/15 09:57:31;;;;;;;97.40;14.50;;;20.40;79.70;;;;;;5032512;28;20053;-63
2022/05/15 10:00:00;;;;;;;173.70;19.02;;;20.40;79.70;;;;;;5035402;28;20040;-61
2022/05/15 10:02:40;;;;;;;100.30;13.68;;;20.40;79.70;;;;;;5031412;28;20029;-64
2022/05/15 10:05:15;;;;;;;88.57;14.35;;;20.50;79.40;;;;;;5030574;28;20102;-61
2022/05/15 10:07:44;;;;;;;92.13;14.90;;;20.60;79.30;;;;;;5028782;28;20661;-62
2022/05/15 10:10:25;;;;;;;129.95;15.15;;;20.70;78.90;;;;;;5015405;28;20048;-60
2022/05/15 10:12:52;;;;;;;96.22;13.88;;;20.70;79.00;;;;;;5030088;28;20070;-63
2022/05/15 10:15:18;;;;;;;157.07;16.10;;;20.90;78.80;;;;;;5004035;28;20071;-61
2022/05/15 10:17:53;;;;;;;126.68;14.82;;;20.80;78.60;;;;;;5018690;28;20203;-62
2022/05/15 10:20:29;;;;;;;103.78;16.30;;;20.80;78.30;;;;;;5014878;28;20025;-62
2022/05/15 10:23:07;;;;;;;125.53;15.82;;;20.90;78.30;;;;;;5028369;28;20049;-62
2022/05/15 10:25:44;;;;;;;138.65;16.50;;;21.00;78.20;;;;;;5029623;28;20077;-63
2022/05/15 10:28:19;;;;;;;126.30;16.63;;;21.00;77.90;;;;;;5035514;28;20024;-62
2022/05/15 10:31:10;;;;;;;117.35;14.68;;;21.00;77.90;;;;;;5032357;28;20036;-62
2022/05/15 10:33:40;;;;;;;97.18;13.35;;;21.10;77.60;;;;;;5025522;28;20076;-62
2022/05/15 10:36:32;;;;;;;123.88;16.50;;;21.10;77.50;;;;;;5011371;28;20651;-61
2022/05/15 10:39:05;;;;;;;110.10;14.60;;;21.10;77.30;;;;;;5028607;28;20055;-62
2022/05/15 10:41:55;;;;;;;209.65;25.08;;;21.20;77.20;;;;;;5032877;28;20141;-63
2022/05/15 10:44:39;;;;;;;104.97;15.45;;;21.30;77.00;;;;;;5018284;28;20113;-61
2022/05/15 10:47:15;;;;;;;100.13;13.80;;;21.40;76.30;;;;;;5031213;28;20040;-62
2022/05/15 10:49:59;;;;;;;121.35;16.27;;;21.40;76.00;;;;;;5017547;28;20500;-62
2022/05/15 10:52:49;;;;;;;76.13;12.27;;;21.50;75.90;;;;;;5034138;28;20109;-63
2022/05/15 10:58:47;;;;;;;120.72;16.98;;;21.70;75.50;;;;;;5018200;28;20035;-63
2022/05/15 11:01:49;;;;;;;78.18;11.85;;;21.80;75.10;;;;;;5030573;28;20052;-63
2022/05/15 11:04:34;;;;;;;71.57;11.18;;;21.80;75.00;;;;;;5005304;28;20055;-63
2022/05/15 11:07:07;;;;;;;72.28;11.13;;;21.90;74.60;;;;;;5015091;28;20839;-62
2022/05/15 11:09:55;;;;;;;79.18;10.57;;;22.00;74.70;;;;;;5027503;28;20832;-62
2022/05/15 11:12:29;;;;;;;86.05;12.15;;;22.10;74.30;;;;;;5035774;28;20033;-63
2022/05/15 11:15:31;;;;;;;64.20;10.63;;;22.20;74.10;;;;;;5029692;28;20919;-63
2022/05/15 11:18:08;;;;;;;84.30;11.15;;;22.40;73.70;;;;;;5031280;28;20045;-63
2022/05/15 11:20:42;;;;;;;74.60;10.40;;;22.50;73.10;;;;;;5032248;28;20091;-61
2022/05/15 11:23:22;;;;;;;102.30;13.77;;;22.60;72.50;;;;;;5038491;28;20115;-62
2022/05/15 11:25:51;;;;;;;93.47;11.15;;;22.80;72.50;;;;;;5028917;28;20075;-62
2022/05/15 11:28:30;;;;;;;84.85;12.20;;;22.90;71.70;;;;;;5017191;28;20041;-63
2022/05/15 11:31:04;;;;;;;73.45;11.95;;;23.00;71.40;;;;;;5029396;28;20128;-62
2022/05/15 11:33:48;;;;;;;82.40;11.65;;;23.10;71.00;;;;;;5012590;28;20941;-62
2022/05/15 11:36:22;;;;;;;73.75;11.65;;;23.30;70.60;;;;;;5036617;28;20176;-62
2022/05/15 11:39:15;;;;;;;75.90;10.25;;;23.40;70.20;;;;;;5037031;28;20060;-63
2022/05/15 11:41:44;;;;;;;92.97;12.13;;;23.40;69.60;;;;;;5033129;28;20520;-62
2022/05/15 11:44:10;;;;;;;80.80;10.43;;;23.50;69.30;;;;;;5036269;28;20033;-62
2022/05/15 11:46:45;;;;;;;89.47;12.20;;;23.60;69.00;;;;;;5034839;28;20028;-63
2022/05/15 11:49:17;;;;;;;88.03;11.13;;;23.70;68.80;;;;;;5036994;28;20449;-62
2022/05/15 11:51:43;;;;;;;98.45;12.48;;;23.80;68.60;;;;;;5037011;28;21366;-62
2022/05/15 11:54:10;;;;;;;77.70;9.95;;;23.90;68.30;;;;;;5013167;28;20063;-63
2022/05/15 11:56:54;;;;;;;65.95;10.18;;;24.00;67.80;;;;;;5011931;28;20115;-62
2022/05/15 11:59:27;;;;;;;63.95;8.27;;;24.00;67.30;;;;;;5030421;28;20033;-62
2022/05/15 12:01:53;;;;;;;65.15;8.88;;;24.10;67.30;;;;;;5013001;28;20021;-61
2022/05/15 12:04:25;;;;;;;69.70;8.55;;;24.20;67.40;;;;;;5020142;28;20044;-63
2022/05/15 12:06:56;;;;;;;52.90;9.25;;;24.30;67.00;;;;;;5030670;28;21216;-62
2022/05/15 12:09:39;;;;;;;54.25;8.63;;;24.40;66.60;;;;;;5033477;28;20047;-62
2022/05/15 12:12:20;;;;;;;48.75;7.82;;;24.50;66.40;;;;;;5036257;28;20584;-61
2022/05/15 12:15:06;;;;;;;48.88;8.68;;;24.50;66.00;;;;;;5033166;28;20040;-63
2022/05/15 12:17:35;;;;;;;102.50;13.20;;;24.60;66.00;;;;;;5015748;28;20135;-63
2022/05/15 12:20:15;;;;;;;64.05;9.00;;;24.60;65.80;;;;;;5027938;28;20477;-62
2022/05/15 12:22:52;;;;;;;47.28;7.80;;;24.70;65.50;;;;;;5022075;28;20028;-62
2022/05/15 12:25:17;;;;;;;54.30;7.15;;;24.80;65.40;;;;;;5018190;28;20032;-61
2022/05/15 12:31:10;;;;;;;52.75;6.97;;;24.90;64.40;;;;;;5033327;28;20163;-62
2022/05/15 12:33:40;;;;;;;46.13;7.18;;;25.00;64.30;;;;;;5019247;28;20065;-62
2022/05/15 12:36:13;;;;;;;53.72;7.57;;;25.10;63.60;;;;;;5037282;28;20028;-62
2022/05/15 12:38:42;;;;;;;51.33;7.82;;;25.10;63.50;;;;;;5018259;28;20124;-62
2022/05/15 12:41:12;;;;;;;57.78;8.65;;;25.20;62.60;;;;;;5017904;28;20144;-62
2022/05/15 12:43:45;;;;;;;61.63;8.13;;;25.30;62.40;;;;;;5019260;28;20036;-62
2022/05/15 12:46:27;;;;;;;57.35;8.88;;;25.40;62.00;;;;;;5033736;28;20044;-63
2022/05/15 12:48:52;;;;;;;54.05;9.25;;;25.50;61.80;;;;;;5034335;28;20029;-62
2022/05/15 12:51:25;;;;;;;53.10;7.60;;;25.50;61.30;;;;;;5035669;28;20025;-62
2022/05/15 12:53:50;;;;;;;41.60;6.80;;;25.60;60.60;;;;;;5033255;28;20025;-64
2022/05/15 12:56:35;;;;;;;37.95;6.57;;;25.60;60.30;;;;;;5037036;28;20122;-62
2022/05/15 12:59:21;;;;;;;46.28;7.88;;;25.70;59.80;;;;;;5036723;28;20044;-63
2022/05/15 13:01:47;;;;;;;50.65;7.82;;;25.80;60.50;;;;;;5039178;28;20068;-61
2022/05/15 13:04:26;;;;;;;27.33;5.93;;;25.90;61.10;;;;;;5020038;28;20092;-62
2022/05/15 13:06:54;;;;;;;50.15;6.63;;;25.90;59.50;;;;;;5024406;28;20040;-63
2022/05/15 13:09:28;;;;;;;29.15;5.40;;;26.00;59.40;;;;;;5021775;28;20175;-62
2022/05/15 13:11:57;;;;;;;53.15;7.15;;;26.10;59.40;;;;;;5039408;28;20040;-62
2022/05/15 13:14:27;;;;;;;46.60;6.78;;;26.10;59.20;;;;;;5034343;28;20048;-63